sensor_id;sensor_type;location;lat;lon;timestamp;P1;durP1;ratioP1;P2;durP2;ratioP2
44000;SDS011;29660;42.892;24.710;2022-11-13T00:03:20;21.90;;;17.45;;
44000;SDS011;29660;42.892;24.710;2022-11-13T00:08:41;26.27;;;18.38;;
44000;SDS011;29660;42.892;24.710;2022-11-13T00:14:03;35.35;;;24.15;;
44000;SDS011;29660;42.892;24.710;2022-11-13T00:19:23;23.70;;;17.25;;
44000;SDS011;29660;42.892;24.710;2022-11-13T00:24:43;23.75;;;16.48;;
44000;SDS011;29660;42.892;24.710;2022-11-13T00:30:04;22.38;;;16.38;;
44000;SDS011;29660;42.892;24.710;2022-11-13T00:35:24;29.23;;;20.52;;
44000;SDS011;29660;42.892;24.710;2022-11-13T00:40:45;25.08;;;20.02;;
44000;SDS011;29660;42.892;24.710;2022-11-13T00:46:06;29.67;;;19.95;;
44000;SDS011;29660;42.892;24.710;2022-11-13T00:51:27;26.20;;;17.75;;
44000;SDS011;29660;42.892;24.710;2022-11-13T00:56:48;26.63;;;18.40;;
44000;SDS011;29660;42.892;24.710;2022-11-13T01:02:08;23.90;;;18.38;;
44000;SDS011;29660;42.892;24.710;2022-11-13T01:07:29;24.83;;;17.13;;
44000;SDS011;29660;42.892;24.710;2022-11-13T01:12:49;20.33;;;15.27;;
44000;SDS011;29660;42.892;24.710;2022-11-13T01:18:09;17.73;;;12.88;;
44000;SDS011;29660;42.892;24.710;2022-11-13T01:23:31;25.45;;;13.73;;
44000;SDS011;29660;42.892;24.710;2022-11-13T01:28:51;20.80;;;15.05;;
44000;SDS011;29660;42.892;24.710;2022-11-13T01:34:13;19.15;;;14.77;;
44000;SDS011;29660;42.892;24.710;2022-11-13T01:39:33;20.02;;;14.60;;
44000;SDS011;29660;42.892;24.710;2022-11-13T01:44:57;54.80;;;31.70;;
44000;SDS011;29660;42.892;24.710;2022-11-13T01:50:19;84.55;;;43.10;;
44000;SDS011;29660;42.892;24.710;2022-11-13T01:55:40;58.30;;;32.92;;
44000;SDS011;29660;42.892;24.710;2022-11-13T02:01:01;27.10;;;19.08;;
44000;SDS011;29660;42.892;24.710;2022-11-13T02:06:23;25.30;;;17.52;;
44000;SDS011;29660;42.892;24.710;2022-11-13T02:11:47;24.90;;;16.25;;
44000;SDS011;29660;42.892;24.710;2022-11-13T02:17:10;35.40;;;23.80;;
44000;SDS011;29660;42.892;24.710;2022-11-13T02:22:40;34.83;;;22.23;;
44000;SDS011;29660;42.892;24.710;2022-11-13T02:28:10;18.75;;;13.20;;
44000;SDS011;29660;42.892;24.710;2022-11-13T02:33:31;18.05;;;12.85;;
44000;SDS011;29660;42.892;24.710;2022-11-13T02:38:52;27.33;;;16.38;;
44000;SDS011;29660;42.892;24.710;2022-11-13T02:44:15;20.63;;;14.43;;
44000;SDS011;29660;42.892;24.710;2022-11-13T02:49:36;26.02;;;15.00;;
44000;SDS011;29660;42.892;24.710;2022-11-13T02:54:56;30.00;;;17.20;;
44000;SDS011;29660;42.892;24.710;2022-11-13T03:00:16;25.48;;;16.50;;
44000;SDS011;29660;42.892;24.710;2022-11-13T03:05:37;39.47;;;18.63;;
44000;SDS011;29660;42.892;24.710;2022-11-13T03:10:57;56.35;;;20.52;;
44000;SDS011;29660;42.892;24.710;2022-11-13T03:16:18;50.72;;;22.90;;
44000;SDS011;29660;42.892;24.710;2022-11-13T03:21:38;29.48;;;19.48;;
44000;SDS011;29660;42.892;24.710;2022-11-13T03:26:58;41.15;;;23.05;;
44000;SDS011;29660;42.892;24.710;2022-11-13T03:32:20;49.72;;;20.38;;
44000;SDS011;29660;42.892;24.710;2022-11-13T03:37:40;83.13;;;25.88;;
44000;SDS011;29660;42.892;24.710;2022-11-13T03:43:00;110.03;;;25.63;;
44000;SDS011;29660;42.892;24.710;2022-11-13T03:48:20;41.85;;;22.52;;
44000;SDS011;29660;42.892;24.710;2022-11-13T03:53:40;20.95;;;15.30;;
44000;SDS011;29660;42.892;24.710;2022-11-13T03:59:01;18.58;;;13.07;;
44000;SDS011;29660;42.892;24.710;2022-11-13T04:04:21;16.45;;;12.75;;
44000;SDS011;29660;42.892;24.710;2022-11-13T04:09:41;19.98;;;12.75;;
44000;SDS011;29660;42.892;24.710;2022-11-13T04:15:02;20.65;;;16.65;;
44000;SDS011;29660;42.892;24.710;2022-11-13T04:20:22;14.35;;;11.75;;
44000;SDS011;29660;42.892;24.710;2022-11-13T04:25:44;23.85;;;15.40;;
44000;SDS011;29660;42.892;24.710;2022-11-13T04:31:05;18.95;;;13.75;;
44000;SDS011;29660;42.892;24.710;2022-11-13T04:36:26;22.52;;;15.40;;
44000;SDS011;29660;42.892;24.710;2022-11-13T04:41:46;32.08;;;23.05;;
44000;SDS011;29660;42.892;24.710;2022-11-13T04:47:25;22.98;;;16.50;;
44000;SDS011;29660;42.892;24.710;2022-11-13T04:52:46;24.58;;;19.25;;
44000;SDS011;29660;42.892;24.710;2022-11-13T04:58:06;27.30;;;19.40;;
44000;SDS011;29660;42.892;24.710;2022-11-13T05:03:26;22.50;;;15.98;;
44000;SDS011;29660;42.892;24.710;2022-11-13T05:08:46;19.70;;;14.15;;
44000;SDS011;29660;42.892;24.710;2022-11-13T05:14:09;20.90;;;14.43;;
44000;SDS011;29660;42.892;24.710;2022-11-13T05:19:33;14.68;;;12.32;;
44000;SDS011;29660;42.892;24.710;2022-11-13T05:24:53;23.52;;;17.20;;
44000;SDS011;29660;42.892;24.710;2022-11-13T05:30:14;15.68;;;13.57;;
44000;SDS011;29660;42.892;24.710;2022-11-13T05:35:35;16.98;;;13.77;;
44000;SDS011;29660;42.892;24.710;2022-11-13T05:41:05;19.13;;;14.52;;
44000;SDS011;29660;42.892;24.710;2022-11-13T05:46:36;24.42;;;19.05;;
44000;SDS011;29660;42.892;24.710;2022-11-13T05:51:57;22.23;;;17.63;;
44000;SDS011;29660;42.892;24.710;2022-11-13T05:57:17;21.92;;;17.42;;
44000;SDS011;29660;42.892;24.710;2022-11-13T06:02:37;21.88;;;17.98;;
44000;SDS011;29660;42.892;24.710;2022-11-13T06:07:58;26.33;;;21.23;;
44000;SDS011;29660;42.892;24.710;2022-11-13T06:13:18;72.50;;;50.30;;
44000;SDS011;29660;42.892;24.710;2022-11-13T06:18:40;29.02;;;21.80;;
44000;SDS011;29660;42.892;24.710;2022-11-13T06:24:02;37.33;;;26.88;;
44000;SDS011;29660;42.892;24.710;2022-11-13T06:29:22;30.52;;;25.00;;
44000;SDS011;29660;42.892;24.710;2022-11-13T06:34:43;120.55;;;94.22;;
44000;SDS011;29660;42.892;24.710;2022-11-13T06:40:03;44.22;;;30.35;;
44000;SDS011;29660;42.892;24.710;2022-11-13T06:45:25;48.17;;;34.63;;
44000;SDS011;29660;42.892;24.710;2022-11-13T06:50:46;47.40;;;33.42;;
44000;SDS011;29660;42.892;24.710;2022-11-13T06:56:07;38.97;;;29.02;;
44000;SDS011;29660;42.892;24.710;2022-11-13T07:01:28;32.65;;;24.02;;
44000;SDS011;29660;42.892;24.710;2022-11-13T07:06:48;24.27;;;19.83;;
44000;SDS011;29660;42.892;24.710;2022-11-13T07:12:09;30.88;;;24.98;;
44000;SDS011;29660;42.892;24.710;2022-11-13T07:17:30;30.55;;;25.88;;
44000;SDS011;29660;42.892;24.710;2022-11-13T07:22:53;15.25;;;11.93;;
44000;SDS011;29660;42.892;24.710;2022-11-13T07:28:15;26.95;;;22.40;;
44000;SDS011;29660;42.892;24.710;2022-11-13T07:33:35;30.55;;;25.45;;
44000;SDS011;29660;42.892;24.710;2022-11-13T07:38:56;17.10;;;12.70;;
44000;SDS011;29660;42.892;24.710;2022-11-13T07:44:19;15.23;;;13.45;;
44000;SDS011;29660;42.892;24.710;2022-11-13T07:50:00;11.70;;;9.95;;
44000;SDS011;29660;42.892;24.710;2022-11-13T07:55:27;13.75;;;11.82;;
44000;SDS011;29660;42.892;24.710;2022-11-13T08:00:49;12.10;;;9.98;;
44000;SDS011;29660;42.892;24.710;2022-11-13T08:06:09;14.48;;;10.63;;
44000;SDS011;29660;42.892;24.710;2022-11-13T08:11:30;16.48;;;13.02;;
44000;SDS011;29660;42.892;24.710;2022-11-13T08:16:50;14.52;;;12.57;;
44000;SDS011;29660;42.892;24.710;2022-11-13T08:22:10;14.68;;;11.35;;
44000;SDS011;29660;42.892;24.710;2022-11-13T08:27:30;48.05;;;36.60;;
44000;SDS011;29660;42.892;24.710;2022-11-13T08:32:51;21.10;;;16.48;;
44000;SDS011;29660;42.892;24.710;2022-11-13T08:38:12;17.40;;;15.57;;
44000;SDS011;29660;42.892;24.710;2022-11-13T08:43:33;19.80;;;17.63;;
44000;SDS011;29660;42.892;24.710;2022-11-13T08:48:53;18.50;;;16.33;;
44000;SDS011;29660;42.892;24.710;2022-11-13T08:54:14;82.75;;;60.38;;
44000;SDS011;29660;42.892;24.710;2022-11-13T08:59:34;27.75;;;23.40;;
44000;SDS011;29660;42.892;24.710;2022-11-13T09:04:55;50.25;;;42.55;;
44000;SDS011;29660;42.892;24.710;2022-11-13T09:10:16;79.50;;;64.18;;
44000;SDS011;29660;42.892;24.710;2022-11-13T09:15:37;36.10;;;28.35;;
44000;SDS011;29660;42.892;24.710;2022-11-13T09:20:59;17.35;;;15.60;;
44000;SDS011;29660;42.892;24.710;2022-11-13T09:26:21;61.78;;;51.45;;
44000;SDS011;29660;42.892;24.710;2022-11-13T09:31:42;22.75;;;18.55;;
44000;SDS011;29660;42.892;24.710;2022-11-13T09:37:03;17.45;;;15.52;;
44000;SDS011;29660;42.892;24.710;2022-11-13T09:42:23;24.80;;;22.20;;
44000;SDS011;29660;42.892;24.710;2022-11-13T09:47:48;12.38;;;10.65;;
44000;SDS011;29660;42.892;24.710;2022-11-13T09:53:12;14.85;;;13.07;;
44000;SDS011;29660;42.892;24.710;2022-11-13T10:04:13;19.30;;;15.10;;
44000;SDS011;29660;42.892;24.710;2022-11-13T10:15:30;18.50;;;16.33;;
44000;SDS011;29660;42.892;24.710;2022-11-13T10:20:54;15.40;;;13.63;;
44000;SDS011;29660;42.892;24.710;2022-11-13T10:26:18;31.15;;;28.10;;
44000;SDS011;29660;42.892;24.710;2022-11-13T10:31:48;14.43;;;12.68;;
44000;SDS011;29660;42.892;24.710;2022-11-13T10:37:33;16.60;;;13.65;;
44000;SDS011;29660;42.892;24.710;2022-11-13T10:48:38;36.05;;;18.30;;
44000;SDS011;29660;42.892;24.710;2022-11-13T10:53:59;25.73;;;15.48;;
44000;SDS011;29660;42.892;24.710;2022-11-13T10:59:19;15.70;;;12.63;;
44000;SDS011;29660;42.892;24.710;2022-11-13T11:04:40;16.85;;;10.98;;
44000;SDS011;29660;42.892;24.710;2022-11-13T11:10:00;20.13;;;14.15;;
44000;SDS011;29660;42.892;24.710;2022-11-13T11:15:22;16.02;;;10.73;;
44000;SDS011;29660;42.892;24.710;2022-11-13T11:20:47;15.02;;;9.77;;
44000;SDS011;29660;42.892;24.710;2022-11-13T11:26:20;21.75;;;16.00;;
44000;SDS011;29660;42.892;24.710;2022-11-13T11:31:52;20.17;;;11.32;;
44000;SDS011;29660;42.892;24.710;2022-11-13T11:37:18;16.25;;;10.00;;
44000;SDS011;29660;42.892;24.710;2022-11-13T11:48:28;15.27;;;12.98;;
44000;SDS011;29660;42.892;24.710;2022-11-13T11:59:27;18.33;;;14.90;;
44000;SDS011;29660;42.892;24.710;2022-11-13T12:10:51;13.10;;;11.60;;
44000;SDS011;29660;42.892;24.710;2022-11-13T12:22:04;10.13;;;8.00;;
44000;SDS011;29660;42.892;24.710;2022-11-13T12:33:05;9.75;;;8.57;;
44000;SDS011;29660;42.892;24.710;2022-11-13T12:44:24;25.02;;;13.90;;
44000;SDS011;29660;42.892;24.710;2022-11-13T12:49:56;11.88;;;9.32;;
44000;SDS011;29660;42.892;24.710;2022-11-13T12:55:25;23.65;;;15.10;;
44000;SDS011;29660;42.892;24.710;2022-11-13T13:23:39;11.25;;;9.65;;
44000;SDS011;29660;42.892;24.710;2022-11-13T13:29:13;13.90;;;10.73;;
44000;SDS011;29660;42.892;24.710;2022-11-13T13:34:54;10.45;;;9.07;;
44000;SDS011;29660;42.892;24.710;2022-11-13T13:57:04;15.63;;;13.68;;
44000;SDS011;29660;42.892;24.710;2022-11-13T14:02:30;23.40;;;18.05;;
44000;SDS011;29660;42.892;24.710;2022-11-13T14:07:51;21.42;;;17.00;;
44000;SDS011;29660;42.892;24.710;2022-11-13T14:13:12;21.35;;;17.08;;
44000;SDS011;29660;42.892;24.710;2022-11-13T14:18:33;20.60;;;18.48;;
44000;SDS011;29660;42.892;24.710;2022-11-13T14:23:54;24.65;;;22.02;;
44000;SDS011;29660;42.892;24.710;2022-11-13T14:29:20;94.18;;;60.92;;
44000;SDS011;29660;42.892;24.710;2022-11-13T14:34:44;47.28;;;35.80;;
44000;SDS011;29660;42.892;24.710;2022-11-13T14:40:24;29.27;;;25.27;;
44000;SDS011;29660;42.892;24.710;2022-11-13T14:45:52;68.25;;;48.92;;
44000;SDS011;29660;42.892;24.710;2022-11-13T14:51:40;49.10;;;38.95;;
44000;SDS011;29660;42.892;24.710;2022-11-13T14:57:08;69.00;;;55.30;;
44000;SDS011;29660;42.892;24.710;2022-11-13T15:02:30;87.13;;;69.95;;
44000;SDS011;29660;42.892;24.710;2022-11-13T15:07:50;120.32;;;92.30;;
44000;SDS011;29660;42.892;24.710;2022-11-13T15:13:14;128.77;;;92.97;;
44000;SDS011;29660;42.892;24.710;2022-11-13T15:18:36;108.65;;;89.45;;
44000;SDS011;29660;42.892;24.710;2022-11-13T15:23:56;114.65;;;87.07;;
44000;SDS011;29660;42.892;24.710;2022-11-13T15:29:17;144.45;;;128.63;;
44000;SDS011;29660;42.892;24.710;2022-11-13T15:34:37;111.75;;;86.90;;
44000;SDS011;29660;42.892;24.710;2022-11-13T15:39:58;71.85;;;54.53;;
44000;SDS011;29660;42.892;24.710;2022-11-13T15:45:18;98.45;;;85.65;;
44000;SDS011;29660;42.892;24.710;2022-11-13T15:50:38;89.00;;;78.03;;
44000;SDS011;29660;42.892;24.710;2022-11-13T15:55:59;101.78;;;84.22;;
44000;SDS011;29660;42.892;24.710;2022-11-13T16:01:22;151.20;;;119.10;;
44000;SDS011;29660;42.892;24.710;2022-11-13T16:06:42;260.13;;;205.93;;
44000;SDS011;29660;42.892;24.710;2022-11-13T16:12:03;83.68;;;69.03;;
44000;SDS011;29660;42.892;24.710;2022-11-13T16:17:24;99.75;;;88.78;;
44000;SDS011;29660;42.892;24.710;2022-11-13T16:22:44;92.00;;;79.22;;
44000;SDS011;29660;42.892;24.710;2022-11-13T16:28:07;127.20;;;111.63;;
44000;SDS011;29660;42.892;24.710;2022-11-13T16:33:33;141.93;;;120.05;;
44000;SDS011;29660;42.892;24.710;2022-11-13T16:38:56;148.43;;;120.22;;
44000;SDS011;29660;42.892;24.710;2022-11-13T16:44:16;171.52;;;104.38;;
44000;SDS011;29660;42.892;24.710;2022-11-13T16:49:37;239.07;;;160.60;;
44000;SDS011;29660;42.892;24.710;2022-11-13T16:54:57;227.25;;;145.63;;
44000;SDS011;29660;42.892;24.710;2022-11-13T17:00:22;179.18;;;119.13;;
44000;SDS011;29660;42.892;24.710;2022-11-13T17:05:44;177.70;;;121.43;;
44000;SDS011;29660;42.892;24.710;2022-11-13T17:11:04;495.50;;;344.63;;
44000;SDS011;29660;42.892;24.710;2022-11-13T17:16:25;290.73;;;216.10;;
44000;SDS011;29660;42.892;24.710;2022-11-13T17:21:47;203.63;;;148.98;;
44000;SDS011;29660;42.892;24.710;2022-11-13T17:27:07;136.00;;;105.93;;
44000;SDS011;29660;42.892;24.710;2022-11-13T17:32:28;128.63;;;102.53;;
44000;SDS011;29660;42.892;24.710;2022-11-13T17:37:50;113.07;;;92.18;;
44000;SDS011;29660;42.892;24.710;2022-11-13T17:43:10;117.13;;;104.38;;
44000;SDS011;29660;42.892;24.710;2022-11-13T17:48:33;102.20;;;84.60;;
44000;SDS011;29660;42.892;24.710;2022-11-13T17:53:57;127.25;;;101.25;;
44000;SDS011;29660;42.892;24.710;2022-11-13T17:59:17;143.55;;;118.95;;
44000;SDS011;29660;42.892;24.710;2022-11-13T18:04:38;157.73;;;128.43;;
44000;SDS011;29660;42.892;24.710;2022-11-13T18:09:58;136.55;;;113.18;;
44000;SDS011;29660;42.892;24.710;2022-11-13T18:15:18;105.53;;;89.07;;
44000;SDS011;29660;42.892;24.710;2022-11-13T18:20:39;124.47;;;99.85;;
44000;SDS011;29660;42.892;24.710;2022-11-13T18:26:11;140.23;;;109.13;;
44000;SDS011;29660;42.892;24.710;2022-11-13T18:31:34;154.07;;;125.20;;
44000;SDS011;29660;42.892;24.710;2022-11-13T18:36:55;157.25;;;125.85;;
44000;SDS011;29660;42.892;24.710;2022-11-13T18:42:18;138.02;;;106.10;;
44000;SDS011;29660;42.892;24.710;2022-11-13T18:47:38;126.95;;;107.38;;
44000;SDS011;29660;42.892;24.710;2022-11-13T18:52:59;143.88;;;120.22;;
44000;SDS011;29660;42.892;24.710;2022-11-13T18:58:19;142.60;;;117.82;;
44000;SDS011;29660;42.892;24.710;2022-11-13T19:03:40;157.57;;;126.78;;
44000;SDS011;29660;42.892;24.710;2022-11-13T19:09:20;134.55;;;103.32;;
44000;SDS011;29660;42.892;24.710;2022-11-13T19:14:41;132.27;;;105.68;;
44000;SDS011;29660;42.892;24.710;2022-11-13T19:20:01;144.30;;;111.80;;
44000;SDS011;29660;42.892;24.710;2022-11-13T19:25:22;162.10;;;129.80;;
44000;SDS011;29660;42.892;24.710;2022-11-13T19:30:43;99.40;;;80.65;;
44000;SDS011;29660;42.892;24.710;2022-11-13T19:36:09;113.15;;;85.72;;
44000;SDS011;29660;42.892;24.710;2022-11-13T19:41:31;117.32;;;86.25;;
44000;SDS011;29660;42.892;24.710;2022-11-13T19:46:52;145.80;;;99.38;;
44000;SDS011;29660;42.892;24.710;2022-11-13T19:52:13;111.45;;;86.30;;
44000;SDS011;29660;42.892;24.710;2022-11-13T19:57:33;74.90;;;55.42;;
44000;SDS011;29660;42.892;24.710;2022-11-13T20:02:54;105.30;;;76.72;;
44000;SDS011;29660;42.892;24.710;2022-11-13T20:08:15;98.97;;;74.00;;
44000;SDS011;29660;42.892;24.710;2022-11-13T20:13:36;130.57;;;98.35;;
44000;SDS011;29660;42.892;24.710;2022-11-13T20:18:57;104.40;;;76.03;;
44000;SDS011;29660;42.892;24.710;2022-11-13T20:24:18;79.28;;;57.25;;
44000;SDS011;29660;42.892;24.710;2022-11-13T20:29:39;86.35;;;62.53;;
44000;SDS011;29660;42.892;24.710;2022-11-13T20:35:00;202.13;;;147.40;;
44000;SDS011;29660;42.892;24.710;2022-11-13T20:40:21;103.38;;;75.93;;
44000;SDS011;29660;42.892;24.710;2022-11-13T20:45:41;118.28;;;87.38;;
44000;SDS011;29660;42.892;24.710;2022-11-13T20:56:27;88.93;;;72.15;;
44000;SDS011;29660;42.892;24.710;2022-11-13T21:01:48;58.35;;;45.10;;
44000;SDS011;29660;42.892;24.710;2022-11-13T21:07:08;66.85;;;49.65;;
44000;SDS011;29660;42.892;24.710;2022-11-13T21:12:30;60.67;;;44.72;;
44000;SDS011;29660;42.892;24.710;2022-11-13T21:17:50;69.90;;;53.50;;
44000;SDS011;29660;42.892;24.710;2022-11-13T21:23:11;110.78;;;83.82;;
44000;SDS011;29660;42.892;24.710;2022-11-13T21:28:33;95.55;;;72.07;;
44000;SDS011;29660;42.892;24.710;2022-11-13T21:33:54;85.30;;;61.63;;
44000;SDS011;29660;42.892;24.710;2022-11-13T21:39:15;74.28;;;53.67;;
44000;SDS011;29660;42.892;24.710;2022-11-13T21:44:36;66.38;;;48.33;;
44000;SDS011;29660;42.892;24.710;2022-11-13T21:49:56;60.75;;;45.92;;
44000;SDS011;29660;42.892;24.710;2022-11-13T21:55:17;58.85;;;42.17;;
44000;SDS011;29660;42.892;24.710;2022-11-13T22:00:37;243.90;;;181.63;;
44000;SDS011;29660;42.892;24.710;2022-11-13T22:11:39;59.92;;;42.80;;
44000;SDS011;29660;42.892;24.710;2022-11-13T22:17:01;66.03;;;44.90;;
44000;SDS011;29660;42.892;24.710;2022-11-13T22:22:22;57.15;;;42.08;;
44000;SDS011;29660;42.892;24.710;2022-11-13T22:27:42;50.30;;;36.40;;
44000;SDS011;29660;42.892;24.710;2022-11-13T22:33:03;47.35;;;35.75;;
44000;SDS011;29660;42.892;24.710;2022-11-13T22:38:23;54.03;;;38.80;;
44000;SDS011;29660;42.892;24.710;2022-11-13T22:43:45;54.83;;;37.30;;
44000;SDS011;29660;42.892;24.710;2022-11-13T22:49:06;50.65;;;36.53;;
44000;SDS011;29660;42.892;24.710;2022-11-13T22:54:27;42.78;;;29.77;;
44000;SDS011;29660;42.892;24.710;2022-11-13T22:59:48;50.13;;;36.58;;
44000;SDS011;29660;42.892;24.710;2022-11-13T23:05:08;50.22;;;39.60;;
44000;SDS011;29660;42.892;24.710;2022-11-13T23:10:29;65.03;;;46.83;;
44000;SDS011;29660;42.892;24.710;2022-11-13T23:15:50;77.53;;;54.45;;
44000;SDS011;29660;42.892;24.710;2022-11-13T23:21:11;80.20;;;55.45;;
44000;SDS011;29660;42.892;24.710;2022-11-13T23:26:33;54.72;;;39.30;;
44000;SDS011;29660;42.892;24.710;2022-11-13T23:31:53;44.45;;;32.33;;
44000;SDS011;29660;42.892;24.710;2022-11-13T23:37:14;45.70;;;31.80;;
44000;SDS011;29660;42.892;24.710;2022-11-13T23:42:35;42.67;;;30.73;;
44000;SDS011;29660;42.892;24.710;2022-11-13T23:48:13;40.67;;;28.15;;
44000;SDS011;29660;42.892;24.710;2022-11-13T23:53:34;38.90;;;27.20;;
44000;SDS011;29660;42.892;24.710;2022-11-13T23:58:54;47.97;;;31.83;;
